Sacramento, California
Traffic Map
Current Weather Conditions
Sacramento, California
Clear
Clear

Feels Like: 6°
Wind Chill: Ceiling: Unl
Heat Index: Visibility: 10mi
Dew Point: Wind: 0mph
Humidity: 89% Direction: ° ()
Pressure: 30.43in Gusts: 0mph
Raw Report DataKSAC 060653Z 00000KT 10SM CLR 06/04 A3043 RMK AO2 SLP305 T00610044
Traffic Incident Summary
Active as of:
Severity:
Category:
InformationThere was an issue retrieving the traffic information for this location. Please try a different location or try again shortly.
Advertisements
Track Severe Weather on mobile